Time;durP1;ratioP1;P1;durP2;ratioP2;P2;SDS_P1;SDS_P2;PMS_P1;PMS_P2;Temp;Humidity;BMP_temperature;BMP_pressure;BME280_temperature;BME280_humidity;BME280_pressure;Samples;Min_cycle;Max_cycle;Signal;HPM_P1;HPM_P2
2021/01/26 00:02:34;;;;;;;27.27;13.63;;;;;;;0.96;73.96;98932.75;147098;1149;104554;-75
2021/01/26 00:05:37;;;;;;;26.82;15.03;;;;;;;0.95;73.31;98941.60;147172;1150;104574;-75
2021/01/26 00:08:40;;;;;;;27.42;14.70;;;;;;;0.97;73.34;98942.31;147196;1149;104460;-74
2021/01/26 00:11:43;;;;;;;24.77;13.63;;;;;;;1.04;73.50;98934.75;147184;1150;104505;-74
2021/01/26 00:14:46;;;;;;;30.60;16.55;;;;;;;1.11;73.84;98936.76;147133;1150;104409;-73
2021/01/26 00:17:50;;;;;;;26.97;14.60;;;;;;;1.11;72.95;98947.27;147182;1149;104514;-73
2021/01/26 00:20:53;;;;;;;28.83;15.93;;;;;;;1.15;73.95;98947.85;147152;1150;104498;-73
2021/01/26 00:23:56;;;;;;;27.75;15.13;;;;;;;1.18;73.78;98940.56;147168;1148;104553;-72
2021/01/26 00:26:59;;;;;;;42.58;19.75;;;;;;;1.18;73.54;98948.44;147165;1150;104460;-73
2021/01/26 00:30:04;;;;;;;37.07;18.20;;;;;;;1.17;73.93;98957.30;147155;1148;104517;-73
2021/01/26 00:33:09;;;;;;;38.63;20.68;;;;;;;1.21;73.07;98951.77;146752;1148;104565;-73
2021/01/26 00:36:13;;;;;;;36.33;19.65;;;;;;;1.24;73.50;98948.91;147060;1150;104582;-72
2021/01/26 00:39:16;;;;;;;39.40;18.60;;;;;;;1.33;73.11;98951.61;146910;1150;104563;-71
2021/01/26 00:42:19;;;;;;;40.63;21.37;;;;;;;1.32;73.66;98960.44;147088;1150;104471;-71
2021/01/26 00:45:24;;;;;;;38.75;21.82;;;;;;;1.30;72.74;98951.85;147157;1148;104617;-71
2021/01/26 00:48:27;;;;;;;37.85;20.57;;;;;;;1.31;72.82;98957.93;147176;1149;104652;-72
2021/01/26 00:51:30;;;;;;;27.50;13.85;;;;;;;1.33;74.04;98962.13;147184;1151;104623;-72
2021/01/26 00:54:34;;;;;;;31.93;16.48;;;;;;;1.32;72.75;98956.98;147207;1150;104585;-73
2021/01/26 00:57:38;;;;;;;29.80;15.58;;;;;;;1.31;73.55;98960.56;147177;1149;104538;-72
2021/01/26 01:00:41;;;;;;;30.95;17.37;;;;;;;1.23;73.46;98960.36;147198;1150;104460;-72
2021/01/26 01:03:50;;;;;;;30.00;16.77;;;;;;;1.13;73.39;98958.48;147180;1150;104510;-73
2021/01/26 01:06:54;;;;;;;27.53;14.07;;;;;;;1.13;73.03;98955.03;147171;1150;104596;-72
2021/01/26 01:09:57;;;;;;;34.38;17.85;;;;;;;1.09;73.44;98948.36;146996;1150;104543;-72
2021/01/26 01:13:00;;;;;;;34.60;16.48;;;;;;;1.11;73.01;98942.02;147115;1151;104518;-75
2021/01/26 01:16:03;;;;;;;31.30;15.80;;;;;;;1.09;73.30;98949.19;147139;1150;104555;-73
2021/01/26 01:19:06;;;;;;;26.45;14.85;;;;;;;1.10;73.51;98944.79;147158;1149;104562;-74
2021/01/26 01:22:09;;;;;;;30.92;15.48;;;;;;;1.09;73.59;98949.19;147186;1150;104492;-73
2021/01/26 01:25:14;;;;;;;29.07;15.53;;;;;;;1.09;73.41;98951.81;147172;1150;104582;-74
2021/01/26 01:28:17;;;;;;;25.70;14.20;;;;;;;1.09;73.81;98943.93;147207;1150;104518;-74
2021/01/26 01:31:20;;;;;;;28.27;16.15;;;;;;;1.09;73.38;98946.56;147180;1151;104476;-73
2021/01/26 01:34:23;;;;;;;27.80;14.93;;;;;;;1.03;73.38;98948.86;147200;1150;104514;-74
2021/01/26 01:37:26;;;;;;;22.30;12.07;;;;;;;0.94;73.22;98945.17;147161;1149;104632;-73
2021/01/26 01:40:33;;;;;;;24.77;14.23;;;;;;;0.95;73.66;98949.48;147191;1150;104493;-72
2021/01/26 01:43:37;;;;;;;26.62;14.73;;;;;;;0.95;73.78;98947.69;147042;1149;104559;-71
2021/01/26 01:46:47;;;;;;;25.70;13.93;;;;;;;0.96;73.67;98954.62;146942;1148;104609;-72
2021/01/26 01:49:50;;;;;;;31.33;15.55;;;;;;;0.99;74.01;98937.77;146797;1148;104553;-72
2021/01/26 01:53:00;;;;;;;29.77;16.23;;;;;;;1.04;74.00;98945.27;146668;1150;104551;-71
2021/01/26 01:56:09;;;;;;;26.17;15.13;;;;;;;1.07;73.37;98956.36;147184;1149;104618;-72
2021/01/26 01:59:15;;;;;;;27.00;14.60;;;;;;;1.00;73.50;98952.55;146898;1149;104503;-73
2021/01/26 02:02:19;;;;;;;25.65;14.38;;;;;;;0.97;73.90;98944.94;147164;1150;104557;-73
2021/01/26 02:05:23;;;;;;;29.33;15.17;;;;;;;1.02;73.67;98953.29;147168;1150;104559;-71
2021/01/26 02:08:38;;;;;;;28.90;15.90;;;;;;;1.10;73.23;98950.05;147140;1148;104621;-71
2021/01/26 02:11:42;;;;;;;25.77;14.05;;;;;;;1.14;73.09;98949.66;147240;1150;104542;-71
2021/01/26 02:14:51;;;;;;;25.37;14.30;;;;;;;1.12;73.73;98956.83;147189;1150;104671;-72
2021/01/26 02:18:17;;;;;;;26.57;14.37;;;;;;;1.10;73.17;98961.38;147147;1150;104471;-72
2021/01/26 02:21:55;;;;;;;24.33;13.57;;;;;;;1.00;74.09;98960.43;147149;1150;104524;-73
2021/01/26 02:25:36;;;;;;;27.25;15.55;;;;;;;1.04;73.55;98961.02;147091;1149;104588;-72
2021/01/26 02:28:53;;;;;;;28.27;16.02;;;;;;;1.08;73.79;98965.92;146562;1149;104570;-71
2021/01/26 02:32:24;;;;;;;25.30;13.45;;;;;;;1.05;73.82;98963.53;146636;1151;104478;-72
2021/01/26 02:35:42;;;;;;;30.10;16.40;;;;;;;1.03;73.59;98962.00;146959;1150;104557;-71
2021/01/26 02:39:16;;;;;;;25.32;14.07;;;;;;;0.93;73.43;98970.61;146780;1151;104505;-71
2021/01/26 02:42:34;;;;;;;28.35;14.38;;;;;;;0.92;73.47;98978.61;146759;1150;104847;-70
2021/01/26 02:45:44;;;;;;;24.45;13.35;;;;;;;0.88;73.33;98977.19;146844;1150;104591;-70
2021/01/26 02:49:07;;;;;;;25.62;13.38;;;;;;;0.93;73.41;98980.29;146589;1149;104486;-70
2021/01/26 02:52:21;;;;;;;24.40;14.10;;;;;;;1.02;73.27;98982.19;147042;1150;104579;-70
2021/01/26 02:55:30;;;;;;;23.95;13.48;;;;;;;1.10;74.16;98977.14;147076;1150;104569;-70
2021/01/26 02:58:38;;;;;;;22.77;13.18;;;;;;;1.07;73.34;98982.63;146995;1150;104593;-71
2021/01/26 03:01:47;;;;;;;24.23;13.33;;;;;;;0.97;73.52;98973.83;147158;1150;104563;-73
2021/01/26 03:04:56;;;;;;;24.55;13.80;;;;;;;0.95;73.97;98986.25;146975;1148;105074;-72
2021/01/26 03:08:05;;;;;;;22.17;12.78;;;;;;;0.97;73.61;98986.96;147102;1149;104562;-72
2021/01/26 03:11:15;;;;;;;24.57;13.37;;;;;;;0.95;73.54;98981.00;147195;1150;104672;-73
2021/01/26 03:14:26;;;;;;;24.45;13.35;;;;;;;0.85;73.63;98990.55;147118;1150;104633;-72
2021/01/26 03:17:34;;;;;;;25.48;13.32;;;;;;;0.86;73.69;98989.61;147129;1150;104572;-72
2021/01/26 03:20:42;;;;;;;24.87;13.78;;;;;;;0.80;73.87;98995.36;147145;1150;104479;-75
2021/01/26 03:23:53;;;;;;;25.00;13.35;;;;;;;0.80;73.96;98992.73;147193;1150;104505;-72
2021/01/26 03:26:57;;;;;;;26.35;14.85;;;;;;;0.86;73.79;99000.11;147194;1150;104612;-71
2021/01/26 03:30:01;;;;;;;23.80;13.10;;;;;;;0.90;73.74;98998.91;147118;1150;104538;-71
2021/01/26 03:33:09;;;;;;;24.70;13.58;;;;;;;0.96;73.96;99001.03;146722;1150;104603;-71
2021/01/26 03:36:12;;;;;;;25.45;14.30;;;;;;;0.88;73.74;98995.57;146944;1150;104491;-73
2021/01/26 03:39:15;;;;;;;25.53;13.40;;;;;;;0.86;74.01;98994.86;147155;1149;104563;-73
2021/01/26 03:42:19;;;;;;;24.47;13.30;;;;;;;0.87;74.12;98999.17;147173;1151;104562;-71
2021/01/26 03:45:22;;;;;;;21.33;12.53;;;;;;;0.86;73.69;99005.37;147194;1150;104627;-73
2021/01/26 03:48:42;;;;;;;23.70;12.93;;;;;;;0.87;73.98;99001.80;147202;1150;104567;-73
2021/01/26 03:52:03;;;;;;;24.47;13.35;;;;;;;0.90;73.22;99004.98;147169;1151;104483;-74
2021/01/26 03:55:15;;;;;;;25.25;14.25;;;;;;;0.83;73.69;99001.20;146972;1150;104610;-72
2021/01/26 03:58:27;;;;;;;;;;;;;;;0.86;73.90;99006.19;147212;1150;104572;-72
2021/01/26 04:01:36;;;;;;;24.00;12.60;;;;;;;0.87;73.31;99007.05;147222;1148;104543;-73
2021/01/26 04:04:46;;;;;;;24.72;13.43;;;;;;;0.88;74.14;99004.27;147083;1150;104562;-72
2021/01/26 04:07:56;;;;;;;24.03;12.93;;;;;;;0.92;73.69;99004.88;147203;1150;104588;-72
2021/01/26 04:11:06;;;;;;;24.70;11.33;;;;;;;1.02;73.91;99016.33;147267;1150;104490;-73
2021/01/26 04:14:12;;;;;;;23.52;12.50;;;;;;;1.11;73.56;99012.12;148630;1148;104479;-73
2021/01/26 04:17:20;;;;;;;23.52;13.20;;;;;;;1.17;73.12;99009.84;146898;1149;104554;-73
2021/01/26 04:20:27;;;;;;;23.37;12.67;;;;;;;1.17;72.85;99015.09;147953;1148;104570;-73
2021/01/26 04:23:30;;;;;;;28.83;14.98;;;;;;;1.09;73.58;99014.86;146820;1150;104538;-73
2021/01/26 04:26:35;;;;;;;29.52;15.18;;;;;;;1.00;73.61;99017.39;147146;1150;104604;-74
2021/01/26 04:29:38;;;;;;;25.12;14.50;;;;;;;0.87;73.58;99023.63;146973;1149;104565;-74
2021/01/26 04:32:42;;;;;;;35.00;16.40;;;;;;;0.84;74.04;99017.78;146639;1150;104672;-73
2021/01/26 04:35:45;;;;;;;33.28;16.85;;;;;;;0.91;73.55;99022.43;146871;1150;104592;-72
2021/01/26 04:38:48;;;;;;;33.70;16.40;;;;;;;0.89;73.28;99020.89;147080;1150;104579;-74
2021/01/26 04:41:56;;;;;;;36.55;17.87;;;;;;;0.94;73.38;99021.34;147161;1148;104492;-74
2021/01/26 04:45:09;;;;;;;37.80;18.90;;;;;;;0.98;73.35;99026.24;146956;1150;104471;-74
2021/01/26 04:48:18;;;;;;;37.27;19.67;;;;;;;0.94;73.02;99029.22;147021;1150;104673;-73
2021/01/26 04:51:28;;;;;;;39.13;17.87;;;;;;;0.91;73.19;99025.05;147174;1150;104573;-73
2021/01/26 04:54:56;;;;;;;37.33;19.17;;;;;;;0.95;73.70;99031.73;147174;1150;104822;-71
2021/01/26 04:58:19;;;;;;;33.78;16.40;;;;;;;0.95;73.58;99030.91;147106;1151;104519;-72
2021/01/26 05:01:36;;;;;;;35.75;17.73;;;;;;;0.93;73.19;99024.94;146636;1150;104512;-72
2021/01/26 05:04:46;;;;;;;30.10;16.73;;;;;;;0.94;73.11;99034.47;146908;1150;104722;-71
2021/01/26 05:07:53;;;;;;;45.00;21.20;;;;;;;0.88;73.04;99041.05;147225;1150;104547;-72
2021/01/26 05:11:02;;;;;;;28.80;13.47;;;;;;;0.92;73.58;99042.47;147137;1149;104552;-72
2021/01/26 05:14:13;;;;;;;33.92;18.25;;;;;;;0.98;73.41;99036.75;147108;1150;104551;-73
2021/01/26 05:17:21;;;;;;;41.37;21.83;;;;;;;0.97;73.47;99039.49;146973;1150;104545;-74
2021/01/26 05:20:28;;;;;;;30.02;15.43;;;;;;;0.95;73.61;99036.16;146759;1149;105011;-72
2021/01/26 05:23:36;;;;;;;33.90;18.27;;;;;;;0.91;73.57;99040.81;147142;1150;104844;-73
2021/01/26 05:26:39;;;;;;;29.55;15.20;;;;;;;0.80;73.25;99037.37;147177;1149;104482;-71
2021/01/26 05:29:43;;;;;;;32.17;15.37;;;;;;;0.74;73.93;99044.76;147150;1149;104441;-72
2021/01/26 05:32:47;;;;;;;33.33;17.52;;;;;;;0.72;73.96;99046.67;147100;1150;104560;-72
2021/01/26 05:35:55;;;;;;;26.87;14.00;;;;;;;0.74;74.08;99049.19;147122;1149;104483;-70
2021/01/26 05:38:58;;;;;;;23.35;11.43;;;;;;;0.80;74.02;99051.33;146871;1149;104679;-71
2021/01/26 05:42:01;;;;;;;29.70;14.18;;;;;;;0.82;73.79;99051.21;146874;1151;104460;-70
2021/01/26 05:45:11;;;;;;;25.62;13.50;;;;;;;0.80;74.19;99059.20;147009;1150;104560;-70
2021/01/26 05:48:17;;;;;;;24.07;11.95;;;;;;;0.80;73.66;99051.33;147204;1150;104500;-70
2021/01/26 05:51:24;;;;;;;26.27;14.27;;;;;;;0.82;74.18;99056.46;147203;1150;104614;-71
2021/01/26 05:54:29;;;;;;;25.48;13.58;;;;;;;0.90;73.95;99059.31;146976;1150;104563;-71
2021/01/26 05:57:35;;;;;;;24.77;13.65;;;;;;;0.92;73.81;99054.77;147136;1150;104479;-72
2021/01/26 06:00:41;;;;;;;27.98;14.47;;;;;;;1.00;73.79;99068.12;147040;1151;104559;-70
2021/01/26 06:03:44;;;;;;;253.27;104.25;;;;;;;0.98;73.47;99064.78;147034;1150;104558;-72
2021/01/26 06:06:53;;;;;;;143.60;62.13;;;;;;;0.98;73.60;99064.78;146743;1150;104588;-71
2021/01/26 06:09:56;;;;;;;72.37;35.68;;;;;;;1.05;73.27;99062.52;146695;1148;104556;-72
2021/01/26 06:12:59;;;;;;;65.77;31.07;;;;;;;1.06;73.74;99067.66;147117;1150;104462;-72
2021/01/26 06:16:12;;;;;;;173.35;73.47;;;;;;;1.10;73.67;99066.45;147011;1149;104559;-73
2021/01/26 06:19:16;;;;;;;56.50;26.90;;;;;;;1.03;73.59;99077.58;147230;1151;104470;-72
2021/01/26 06:22:26;;;;;;;138.75;51.68;;;;;;;0.94;73.42;99073.87;147155;1149;104635;-71
2021/01/26 06:25:33;;;;;;;39.73;19.92;;;;;;;0.89;73.65;99078.66;147141;1150;104595;-73
2021/01/26 06:29:08;;;;;;;53.40;24.82;;;;;;;0.85;73.62;99085.09;147131;1151;104601;-72
2021/01/26 06:32:22;;;;;;;48.58;24.10;;;;;;;0.84;73.75;99086.89;147199;1150;104483;-72
2021/01/26 06:35:33;;;;;;;30.85;16.95;;;;;;;0.81;73.77;99092.40;147106;1149;104557;-71
2021/01/26 06:39:01;;;;;;;90.55;46.95;;;;;;;0.78;74.17;99096.08;147093;1150;104559;-73
2021/01/26 06:42:17;;;;;;;271.13;138.60;;;;;;;0.91;73.95;99092.51;147193;1148;104559;-73
2021/01/26 06:45:27;;;;;;;36.90;20.37;;;;;;;0.94;73.88;99097.50;147169;1150;104546;-71
2021/01/26 06:48:56;;;;;;;37.20;18.80;;;;;;;0.96;73.41;99108.72;146855;1151;104572;-74
2021/01/26 06:52:10;;;;;;;27.83;15.77;;;;;;;0.92;74.22;99110.75;146721;1150;104553;-74
2021/01/26 06:55:43;;;;;;;25.60;13.78;;;;;;;0.88;74.04;99121.62;147041;1149;104623;-74
2021/01/26 06:59:03;;;;;;;23.87;12.77;;;;;;;0.82;74.23;99124.73;147129;1149;104943;-73
2021/01/26 07:02:41;;;;;;;35.43;16.63;;;;;;;0.76;74.46;99136.55;147156;1150;104572;-73
2021/01/26 07:09:42;;;;;;;26.20;13.30;;;;;;;0.64;74.24;99117.33;148019;1147;104535;-70
2021/01/26 07:13:06;;;;;;;31.97;15.65;;;;;;;0.70;75.03;99127.34;147805;1147;104546;-72
2021/01/26 07:16:32;;;;;;;31.57;13.98;;;;;;;0.77;74.47;99128.55;147562;1147;104451;-73
2021/01/26 07:19:59;;;;;;;29.87;15.10;;;;;;;0.91;74.13;99129.28;147452;1148;104546;-74
2021/01/26 07:23:20;;;;;;;77.27;36.28;;;;;;;1.01;73.98;99118.89;147658;1147;104550;-73
2021/01/26 07:26:48;;;;;;;114.77;62.85;;;;;;;1.13;74.09;99113.48;147774;1147;104522;-73
2021/01/26 07:29:58;;;;;;;40.40;20.82;;;;;;;1.18;73.67;99121.02;147729;1147;104550;-71
2021/01/26 07:33:09;;;;;;;77.67;36.35;;;;;;;1.20;73.66;99118.28;147595;1147;104545;-71
2021/01/26 07:36:19;;;;;;;191.45;92.90;;;;;;;1.25;73.46;99132.73;147760;1147;104546;-72
2021/01/26 07:39:31;;;;;;;126.25;59.00;;;;;;;1.31;73.94;99123.49;147729;1148;104546;-72
2021/01/26 07:42:42;;;;;;;35.75;17.12;;;;;;;1.24;73.48;99130.22;147303;1147;104538;-69
2021/01/26 07:45:53;;;;;;;51.30;26.62;;;;;;;1.22;73.91;99132.13;147195;1147;104487;-72
2021/01/26 07:49:03;;;;;;;74.23;32.97;;;;;;;1.17;74.37;99127.22;147246;1147;104453;-71
2021/01/26 07:52:09;;;;;;;167.43;70.55;;;;;;;1.16;73.95;99129.02;147009;1148;104546;-70
2021/01/26 07:55:17;;;;;;;71.65;33.88;;;;;;;1.23;74.34;99133.78;147246;1147;104556;-71
2021/01/26 07:58:21;;;;;;;36.70;19.52;;;;;;;1.29;74.06;99136.78;146930;1147;104608;-70
2021/01/26 08:01:28;;;;;;;129.97;76.03;;;;;;;1.41;73.84;99129.70;147033;1147;104549;-73
2021/01/26 08:04:39;;;;;;;50.00;27.67;;;;;;;1.47;73.91;99136.27;147106;1147;104535;-70
2021/01/26 08:07:44;;;;;;;32.77;18.77;;;;;;;1.48;72.77;99141.41;147073;1148;104501;-72
2021/01/26 08:10:48;;;;;;;32.58;17.25;;;;;;;1.43;73.18;99140.94;147085;1148;104473;-72
2021/01/26 08:13:57;;;;;;;32.48;18.37;;;;;;;1.42;73.89;99139.25;147089;1148;104603;-74
2021/01/26 08:17:04;;;;;;;84.30;45.90;;;;;;;1.44;73.31;99147.84;146873;1148;104550;-72
2021/01/26 08:20:11;;;;;;;44.90;23.87;;;;;;;1.40;73.00;99153.48;147156;1148;104553;-72
2021/01/26 08:23:25;;;;;;;119.80;47.93;;;;;;;1.29;72.56;99146.44;147086;1148;104495;-71
2021/01/26 08:26:31;;;;;;;96.28;42.13;;;;;;;1.29;73.67;99142.03;147098;1148;104471;-72
2021/01/26 08:29:56;;;;;;;39.10;21.20;;;;;;;1.32;73.18;99154.09;146877;1148;104586;-72
2021/01/26 08:33:10;;;;;;;29.67;15.55;;;;;;;1.32;72.28;99156.72;147231;1148;104555;-70
2021/01/26 08:36:33;;;;;;;66.25;32.08;;;;;;;1.30;73.02;99159.45;147097;1148;104544;-70
2021/01/26 08:39:43;;;;;;;29.90;16.10;;;;;;;1.28;72.88;99147.41;147054;1148;104532;-71
2021/01/26 08:43:02;;;;;;;40.50;20.17;;;;;;;1.33;73.42;99166.28;147079;1148;104557;-69
2021/01/26 08:46:08;;;;;;;27.55;15.15;;;;;;;1.38;73.35;99158.85;146930;1148;104538;-70
2021/01/26 08:49:24;;;;;;;37.17;20.68;;;;;;;1.41;72.94;99178.82;147043;1148;104546;-73
2021/01/26 08:52:31;;;;;;;35.50;19.42;;;;;;;1.42;73.27;99176.05;147166;1148;104526;-70
2021/01/26 08:55:40;;;;;;;30.57;15.30;;;;;;;1.43;73.13;99177.73;146862;1148;104532;-71
2021/01/26 08:58:47;;;;;;;51.73;26.45;;;;;;;1.44;73.04;99179.39;147111;1148;104861;-71
2021/01/26 09:01:53;;;;;;;34.63;18.10;;;;;;;1.37;72.23;99179.05;147068;1148;104603;-70
2021/01/26 09:04:56;;;;;;;50.05;25.75;;;;;;;1.38;73.34;99190.39;147111;1148;104549;-69
2021/01/26 09:08:05;;;;;;;57.17;28.27;;;;;;;1.37;72.30;99191.36;147063;1148;104476;-73
2021/01/26 09:11:14;;;;;;;88.95;39.85;;;;;;;1.36;73.04;99187.88;147041;1148;104625;-71
2021/01/26 09:14:26;;;;;;;33.40;18.37;;;;;;;1.42;72.73;99189.19;147063;1148;104503;-69
2021/01/26 09:17:32;;;;;;;25.02;14.15;;;;;;;1.38;71.58;99195.65;147258;1147;104494;-71
2021/01/26 09:20:36;;;;;;;42.40;21.23;;;;;;;1.33;72.50;99203.08;147128;1148;104560;-70
2021/01/26 09:23:41;;;;;;;52.10;25.35;;;;;;;1.33;72.79;99193.39;147076;1148;104523;-70
2021/01/26 09:26:44;;;;;;;68.30;30.67;;;;;;;1.39;71.89;99186.82;147004;1148;104493;-69
2021/01/26 09:29:47;;;;;;;35.20;17.17;;;;;;;1.47;72.52;99189.67;146928;1148;104456;-70
2021/01/26 09:33:02;;;;;;;32.50;16.17;;;;;;;1.50;72.45;99192.07;146901;1148;104506;-71
2021/01/26 09:36:13;;;;;;;43.35;20.60;;;;;;;1.61;72.25;99201.72;147395;1148;104451;-70
2021/01/26 09:39:19;;;;;;;33.73;18.42;;;;;;;1.68;71.36;99208.17;146937;1148;104452;-71
2021/01/26 09:42:25;;;;;;;30.17;16.45;;;;;;;1.76;71.78;99202.30;146626;1147;104532;-70
2021/01/26 09:45:28;;;;;;;32.57;17.87;;;;;;;1.78;69.91;99217.96;147128;1148;104528;-72
2021/01/26 09:48:36;;;;;;;38.55;19.20;;;;;;;1.64;71.35;99213.80;147019;1148;104548;-72
2021/01/26 09:51:43;;;;;;;58.33;26.60;;;;;;;1.67;72.10;99198.59;147159;1148;104629;-71
2021/01/26 09:54:52;;;;;;;34.23;19.40;;;;;;;1.57;71.17;99211.64;147112;1148;104483;-71
2021/01/26 09:57:59;;;;;;;28.30;14.60;;;;;;;1.59;72.05;99208.06;146912;1148;104439;-71
2021/01/26 10:01:04;;;;;;;35.70;19.87;;;;;;;1.62;72.41;99203.41;146956;1148;104551;-72
2021/01/26 10:04:10;;;;;;;24.90;14.75;;;;;;;1.61;72.30;99211.41;147087;1147;104626;-72
2021/01/26 10:07:14;;;;;;;33.80;19.30;;;;;;;1.64;72.44;99212.00;147205;1148;104578;-70
2021/01/26 10:10:23;;;;;;;42.53;22.62;;;;;;;1.74;72.45;99217.36;147131;1148;104531;-70
2021/01/26 10:13:32;;;;;;;119.40;54.03;;;;;;;1.78;71.88;99221.42;146989;1148;104455;-70
2021/01/26 10:16:40;;;;;;;37.80;20.00;;;;;;;1.80;71.71;99216.05;146648;1148;104548;-72
2021/01/26 10:19:43;;;;;;;408.87;195.68;;;;;;;1.78;72.35;99213.53;146734;1148;104576;-71
2021/01/26 10:22:46;;;;;;;55.63;28.00;;;;;;;1.83;72.11;99221.89;147008;1148;104582;-71
2021/01/26 10:25:50;;;;;;;233.02;101.60;;;;;;;1.84;72.37;99213.03;147059;1148;104476;-71
2021/01/26 10:29:00;;;;;;;38.43;20.57;;;;;;;1.89;72.35;99218.77;146986;1148;104541;-70
2021/01/26 10:32:05;;;;;;;29.97;16.77;;;;;;;1.88;72.56;99213.63;147093;1147;104909;-71
2021/01/26 10:35:24;;;;;;;29.05;17.15;;;;;;;1.82;71.55;99209.69;147108;1148;104548;-71
2021/01/26 10:38:29;;;;;;;38.30;21.97;;;;;;;1.83;71.78;99219.27;147121;1148;104555;-70
2021/01/26 10:41:38;;;;;;;43.45;24.92;;;;;;;1.75;71.23;99213.76;147075;1148;104551;-71
2021/01/26 10:44:46;;;;;;;48.90;27.67;;;;;;;1.71;72.10;99214.97;147013;1148;104503;-71
2021/01/26 10:47:50;;;;;;;84.92;40.52;;;;;;;1.70;72.25;99218.58;147103;1148;104538;-73
2021/01/26 10:50:55;;;;;;;69.87;36.08;;;;;;;1.74;71.97;99217.36;147021;1148;104621;-70
2021/01/26 10:53:58;;;;;;;31.00;17.60;;;;;;;1.76;71.32;99211.02;146913;1148;104543;-69
2021/01/26 10:57:02;;;;;;;148.20;75.10;;;;;;;1.86;71.90;99211.11;146605;1148;104473;-70
2021/01/26 11:00:09;;;;;;;78.33;42.80;;;;;;;1.92;71.43;99215.87;146779;1148;104462;-71
2021/01/26 11:03:12;;;;;;;61.80;31.37;;;;;;;1.95;71.60;99205.12;147085;1148;104494;-70
2021/01/26 11:06:15;;;;;;;89.87;45.17;;;;;;;2.03;71.94;99196.60;147055;1148;104533;-71
2021/01/26 11:09:18;;;;;;;51.15;27.95;;;;;;;2.17;71.48;99192.84;147091;1148;104550;-70
2021/01/26 11:12:22;;;;;;;57.75;32.63;;;;;;;2.30;70.56;99196.13;146869;1148;104566;-70
2021/01/26 11:15:27;;;;;;;36.98;20.32;;;;;;;2.42;69.65;99194.28;146993;1148;104534;-70
2021/01/26 11:18:30;;;;;;;118.10;61.42;;;;;;;2.49;70.33;99208.61;147033;1148;104541;-70
2021/01/26 11:21:33;;;;;;;56.60;31.63;;;;;;;2.46;71.20;99195.70;147038;1148;104612;-70
2021/01/26 11:24:37;;;;;;;34.40;19.92;;;;;;;2.57;70.01;99194.81;146753;1148;104531;-71
2021/01/26 11:27:40;;;;;;;61.53;36.53;;;;;;;2.66;69.39;99201.13;146652;1148;104601;-72
2021/01/26 11:30:43;;;;;;;62.53;38.65;;;;;;;2.73;69.50;99194.35;146517;1148;104493;-71
2021/01/26 11:33:47;;;;;;;60.03;33.80;;;;;;;2.64;68.51;99195.98;146700;1148;104481;-69
2021/01/26 11:36:51;;;;;;;23.22;12.90;;;;;;;2.57;68.34;99199.25;146616;1148;104598;-70
2021/01/26 11:39:54;;;;;;;41.63;24.60;;;;;;;2.47;69.50;99202.64;147084;1148;104451;-70
2021/01/26 11:42:58;;;;;;;67.55;39.25;;;;;;;2.33;69.46;99202.97;147041;1148;104504;-70
2021/01/26 11:46:01;;;;;;;24.72;13.88;;;;;;;2.23;69.27;99205.48;146834;1148;104859;-70
2021/01/26 11:49:04;;;;;;;35.00;21.10;;;;;;;2.13;70.58;99212.47;146527;1148;105014;-69
2021/01/26 11:52:07;;;;;;;32.05;18.10;;;;;;;2.15;69.66;99205.29;146608;1148;104627;-70
2021/01/26 11:55:15;;;;;;;47.05;25.23;;;;;;;2.21;69.39;99209.22;146683;1148;104584;-70
2021/01/26 11:58:19;;;;;;;110.48;51.20;;;;;;;2.23;69.17;99208.12;147060;1148;104477;-70
2021/01/26 12:01:22;;;;;;;35.25;19.95;;;;;;;2.17;69.78;99213.89;146964;1148;104577;-69
2021/01/26 12:04:25;;;;;;;82.47;45.20;;;;;;;2.08;69.34;99209.37;146656;1148;104549;-69
2021/01/26 12:07:28;;;;;;;28.15;15.32;;;;;;;2.06;69.18;99219.19;146527;1148;104465;-72
2021/01/26 12:10:32;;;;;;;30.02;17.10;;;;;;;2.01;69.60;99218.74;146612;1148;104538;-70
2021/01/26 12:13:36;;;;;;;32.30;17.77;;;;;;;2.09;71.12;99219.78;146585;1148;104498;-71
2021/01/26 12:16:39;;;;;;;95.77;49.63;;;;;;;2.21;70.13;99223.20;146626;1148;104463;-71
2021/01/26 12:19:42;;;;;;;34.27;17.62;;;;;;;2.20;69.25;99207.56;146732;1148;104528;-71
2021/01/26 12:22:45;;;;;;;70.67;31.27;;;;;;;2.19;69.95;99209.34;146461;1148;104666;-72
2021/01/26 12:25:48;;;;;;;30.60;16.00;;;;;;;2.13;69.05;99209.84;146811;1148;104538;-71
2021/01/26 12:28:51;;;;;;;44.40;24.52;;;;;;;2.13;70.67;99212.47;146998;1148;104552;-70
2021/01/26 12:31:55;;;;;;;34.58;18.70;;;;;;;2.23;71.02;99202.86;147545;1147;104549;-72
2021/01/26 12:34:58;;;;;;;32.33;18.90;;;;;;;2.36;69.09;99203.52;147541;1147;104465;-69
2021/01/26 12:38:03;;;;;;;47.50;27.40;;;;;;;2.43;69.47;99208.30;147019;1147;104551;-69
2021/01/26 12:41:06;;;;;;;39.38;18.52;;;;;;;2.45;70.29;99212.47;147632;1147;104537;-69
2021/01/26 12:44:10;;;;;;;34.33;17.98;;;;;;;2.55;69.30;99210.73;147707;1147;104505;-71
2021/01/26 12:47:13;;;;;;;39.92;22.82;;;;;;;2.58;69.04;99207.03;147194;1147;104553;-70
2021/01/26 12:50:20;;;;;;;47.60;30.10;;;;;;;2.66;69.62;99209.85;147138;1147;104550;-71
2021/01/26 12:53:24;;;;;;;26.93;17.50;;;;;;;2.69;69.37;99212.20;147326;1147;104549;-73
2021/01/26 12:56:28;;;;;;;38.23;23.53;;;;;;;2.71;70.14;99215.58;147278;1147;104538;-71
2021/01/26 12:59:31;;;;;;;83.35;43.08;;;;;;;2.76;70.24;99215.19;147655;1147;104518;-69
2021/01/26 13:02:34;;;;;;;37.37;20.47;;;;;;;2.71;69.46;99207.67;148153;1147;104551;-70
2021/01/26 13:05:37;;;;;;;38.63;22.37;;;;;;;2.66;68.02;99209.02;147662;1148;104602;-71
2021/01/26 13:08:40;;;;;;;98.17;49.80;;;;;;;2.60;69.24;99209.52;147657;1147;104549;-70
2021/01/26 13:11:44;;;;;;;380.05;207.75;;;;;;;2.55;69.40;99209.91;147529;1147;104549;-69
2021/01/26 13:14:47;;;;;;;102.47;56.05;;;;;;;2.61;69.97;99206.76;147647;1147;104548;-70
2021/01/26 13:17:52;;;;;;;42.33;25.48;;;;;;;2.59;69.06;99219.22;147529;1146;104553;-70
2021/01/26 13:20:56;;;;;;;24.50;13.70;;;;;;;2.58;68.19;99222.83;147701;1147;104478;-70
2021/01/26 13:24:00;;;;;;;112.22;65.70;;;;;;;2.57;68.45;99225.59;147572;1147;104969;-70
2021/01/26 13:27:04;;;;;;;71.33;44.88;;;;;;;2.55;69.98;99228.34;147653;1147;104537;-69
2021/01/26 13:30:10;;;;;;;43.85;24.90;;;;;;;2.59;68.81;99235.02;147672;1148;104473;-70
2021/01/26 13:33:13;;;;;;;35.67;21.67;;;;;;;2.49;67.43;99224.41;147579;1147;104477;-70
2021/01/26 13:36:18;;;;;;;28.23;16.62;;;;;;;2.33;68.31;99224.02;147644;1147;104556;-70
2021/01/26 13:39:21;;;;;;;46.28;28.20;;;;;;;2.25;69.24;99219.39;147691;1146;104634;-70
2021/01/26 13:42:24;;;;;;;24.92;15.30;;;;;;;2.22;69.54;99224.89;147635;1148;104523;-71
2021/01/26 13:45:32;;;;;;;38.57;21.77;;;;;;;2.19;68.20;99219.86;147677;1147;104607;-71
2021/01/26 13:48:35;;;;;;;73.40;39.03;;;;;;;2.19;70.18;99227.76;147626;1147;104463;-70
2021/01/26 13:51:39;;;;;;;122.10;60.93;;;;;;;2.22;68.67;99226.69;147231;1148;104476;-72
2021/01/26 13:54:42;;;;;;;36.85;20.35;;;;;;;2.20;69.92;99218.09;147619;1147;104618;-70
2021/01/26 13:57:45;;;;;;;38.95;20.55;;;;;;;2.21;69.59;99230.27;147678;1147;104612;-70
2021/01/26 14:00:49;;;;;;;38.78;22.20;;;;;;;2.21;69.75;99230.27;147734;1147;104505;-70
2021/01/26 14:03:52;;;;;;;125.05;52.95;;;;;;;2.24;70.28;99233.49;147637;1148;104516;-70
2021/01/26 14:06:55;;;;;;;123.58;53.17;;;;;;;2.31;69.49;99234.67;147604;1148;104529;-70
2021/01/26 14:09:58;;;;;;;224.25;97.17;;;;;;;2.41;69.62;99231.30;147625;1147;104658;-71
2021/01/26 14:13:02;;;;;;;120.35;65.87;;;;;;;2.44;69.76;99233.66;147687;1147;104550;-72
2021/01/26 14:16:06;;;;;;;80.72;33.40;;;;;;;2.44;68.98;99231.84;147442;1147;104457;-70
2021/01/26 14:19:10;;;;;;;43.95;23.18;;;;;;;2.41;69.14;99241.83;147444;1148;104556;-72